sensor_id;sensor_type;location;lat;lon;timestamp;P1;durP1;ratioP1;P2;durP2;ratioP2
10667;SDS011;5382;42.136;24.796;2023-06-05T00:00:09;10.10;;;3.15;;
10667;SDS011;5382;42.136;24.796;2023-06-05T00:02:38;8.52;;;3.40;;
10667;SDS011;5382;42.136;24.796;2023-06-05T00:05:05;6.45;;;3.08;;
10667;SDS011;5382;42.136;24.796;2023-06-05T00:07:34;7.38;;;2.70;;
10667;SDS011;5382;42.136;24.796;2023-06-05T00:10:02;7.55;;;3.00;;
10667;SDS011;5382;42.136;24.796;2023-06-05T00:12:30;8.57;;;3.20;;
10667;SDS011;5382;42.136;24.796;2023-06-05T00:14:56;9.50;;;3.50;;
10667;SDS011;5382;42.136;24.796;2023-06-05T00:17:23;6.90;;;2.78;;
10667;SDS011;5382;42.136;24.796;2023-06-05T00:19:52;8.02;;;3.00;;
10667;SDS011;5382;42.136;24.796;2023-06-05T00:22:19;8.07;;;3.45;;
10667;SDS011;5382;42.136;24.796;2023-06-05T00:24:45;8.27;;;3.70;;
10667;SDS011;5382;42.136;24.796;2023-06-05T00:27:12;8.05;;;2.60;;
10667;SDS011;5382;42.136;24.796;2023-06-05T00:29:39;5.95;;;2.33;;
10667;SDS011;5382;42.136;24.796;2023-06-05T00:32:06;4.22;;;2.65;;
10667;SDS011;5382;42.136;24.796;2023-06-05T00:34:33;3.67;;;2.70;;
10667;SDS011;5382;42.136;24.796;2023-06-05T00:37:01;7.28;;;2.97;;
10667;SDS011;5382;42.136;24.796;2023-06-05T00:39:28;9.55;;;2.75;;
10667;SDS011;5382;42.136;24.796;2023-06-05T00:41:55;7.18;;;2.80;;
10667;SDS011;5382;42.136;24.796;2023-06-05T00:44:21;6.60;;;3.47;;
10667;SDS011;5382;42.136;24.796;2023-06-05T00:46:48;8.55;;;3.13;;
10667;SDS011;5382;42.136;24.796;2023-06-05T00:49:18;7.63;;;3.25;;
10667;SDS011;5382;42.136;24.796;2023-06-05T00:51:46;5.57;;;2.45;;
10667;SDS011;5382;42.136;24.796;2023-06-05T00:54:14;4.90;;;2.72;;
10667;SDS011;5382;42.136;24.796;2023-06-05T00:56:41;5.65;;;3.05;;
10667;SDS011;5382;42.136;24.796;2023-06-05T00:59:09;8.30;;;3.60;;
10667;SDS011;5382;42.136;24.796;2023-06-05T01:01:37;9.23;;;3.05;;
10667;SDS011;5382;42.136;24.796;2023-06-05T01:04:05;4.47;;;2.05;;
10667;SDS011;5382;42.136;24.796;2023-06-05T01:06:32;10.63;;;2.85;;
10667;SDS011;5382;42.136;24.796;2023-06-05T01:09:00;8.30;;;3.10;;
10667;SDS011;5382;42.136;24.796;2023-06-05T01:11:34;9.63;;;2.97;;
10667;SDS011;5382;42.136;24.796;2023-06-05T01:14:06;7.30;;;2.92;;
10667;SDS011;5382;42.136;24.796;2023-06-05T01:16:47;5.28;;;3.10;;
10667;SDS011;5382;42.136;24.796;2023-06-05T01:19:16;7.80;;;3.08;;
10667;SDS011;5382;42.136;24.796;2023-06-05T01:21:43;10.00;;;3.83;;
10667;SDS011;5382;42.136;24.796;2023-06-05T01:24:12;7.25;;;2.97;;
10667;SDS011;5382;42.136;24.796;2023-06-05T01:26:43;9.45;;;2.75;;
10667;SDS011;5382;42.136;24.796;2023-06-05T01:29:17;9.40;;;3.47;;
10667;SDS011;5382;42.136;24.796;2023-06-05T01:31:49;7.60;;;3.15;;
10667;SDS011;5382;42.136;24.796;2023-06-05T01:34:22;6.95;;;3.25;;
10667;SDS011;5382;42.136;24.796;2023-06-05T01:36:52;5.60;;;2.92;;
10667;SDS011;5382;42.136;24.796;2023-06-05T01:39:23;5.40;;;3.05;;
10667;SDS011;5382;42.136;24.796;2023-06-05T01:41:51;8.82;;;2.90;;
10667;SDS011;5382;42.136;24.796;2023-06-05T01:44:19;7.82;;;2.90;;
10667;SDS011;5382;42.136;24.796;2023-06-05T01:46:47;3.97;;;2.40;;
10667;SDS011;5382;42.136;24.796;2023-06-05T01:49:15;6.65;;;2.88;;
10667;SDS011;5382;42.136;24.796;2023-06-05T01:51:42;11.93;;;3.30;;
10667;SDS011;5382;42.136;24.796;2023-06-05T01:54:09;12.02;;;3.15;;
10667;SDS011;5382;42.136;24.796;2023-06-05T01:56:38;9.18;;;3.30;;
10667;SDS011;5382;42.136;24.796;2023-06-05T01:59:05;6.55;;;3.38;;
10667;SDS011;5382;42.136;24.796;2023-06-05T02:01:32;6.90;;;3.20;;
10667;SDS011;5382;42.136;24.796;2023-06-05T02:04:00;5.90;;;2.47;;
10667;SDS011;5382;42.136;24.796;2023-06-05T02:06:31;6.72;;;2.63;;
10667;SDS011;5382;42.136;24.796;2023-06-05T02:09:06;8.30;;;2.38;;
10667;SDS011;5382;42.136;24.796;2023-06-05T02:11:35;8.63;;;2.55;;
10667;SDS011;5382;42.136;24.796;2023-06-05T02:14:04;10.73;;;2.25;;
10667;SDS011;5382;42.136;24.796;2023-06-05T02:16:32;8.10;;;2.90;;
10667;SDS011;5382;42.136;24.796;2023-06-05T02:18:59;6.72;;;2.38;;
10667;SDS011;5382;42.136;24.796;2023-06-05T02:21:28;7.60;;;3.08;;
10667;SDS011;5382;42.136;24.796;2023-06-05T02:23:57;6.68;;;2.88;;
10667;SDS011;5382;42.136;24.796;2023-06-05T02:26:24;9.43;;;2.83;;
10667;SDS011;5382;42.136;24.796;2023-06-05T02:28:51;6.68;;;2.67;;
10667;SDS011;5382;42.136;24.796;2023-06-05T02:31:21;11.05;;;3.25;;
10667;SDS011;5382;42.136;24.796;2023-06-05T02:33:50;9.18;;;2.88;;
10667;SDS011;5382;42.136;24.796;2023-06-05T02:36:17;8.45;;;3.10;;
10667;SDS011;5382;42.136;24.796;2023-06-05T02:38:44;6.57;;;2.35;;
10667;SDS011;5382;42.136;24.796;2023-06-05T02:41:11;7.30;;;2.65;;
10667;SDS011;5382;42.136;24.796;2023-06-05T02:43:38;9.45;;;3.13;;
10667;SDS011;5382;42.136;24.796;2023-06-05T02:46:04;10.13;;;2.90;;
10667;SDS011;5382;42.136;24.796;2023-06-05T02:48:33;8.10;;;2.72;;
10667;SDS011;5382;42.136;24.796;2023-06-05T02:50:59;8.95;;;2.63;;
10667;SDS011;5382;42.136;24.796;2023-06-05T02:53:26;6.65;;;2.63;;
10667;SDS011;5382;42.136;24.796;2023-06-05T02:55:53;6.82;;;2.80;;
10667;SDS011;5382;42.136;24.796;2023-06-05T02:58:20;8.07;;;2.67;;
10667;SDS011;5382;42.136;24.796;2023-06-05T03:00:47;5.65;;;3.45;;
10667;SDS011;5382;42.136;24.796;2023-06-05T03:03:15;5.70;;;2.20;;
10667;SDS011;5382;42.136;24.796;2023-06-05T03:05:44;5.13;;;2.88;;
10667;SDS011;5382;42.136;24.796;2023-06-05T03:08:10;6.68;;;2.47;;
10667;SDS011;5382;42.136;24.796;2023-06-05T03:10:37;6.85;;;2.40;;
10667;SDS011;5382;42.136;24.796;2023-06-05T03:13:04;4.18;;;2.10;;
10667;SDS011;5382;42.136;24.796;2023-06-05T03:15:31;5.22;;;1.95;;
10667;SDS011;5382;42.136;24.796;2023-06-05T03:17:57;7.10;;;2.42;;
10667;SDS011;5382;42.136;24.796;2023-06-05T03:20:24;7.32;;;2.33;;
10667;SDS011;5382;42.136;24.796;2023-06-05T03:22:53;9.75;;;3.08;;
10667;SDS011;5382;42.136;24.796;2023-06-05T03:25:21;7.88;;;2.20;;
10667;SDS011;5382;42.136;24.796;2023-06-05T03:27:48;4.47;;;2.42;;
10667;SDS011;5382;42.136;24.796;2023-06-05T03:30:15;5.63;;;2.22;;
10667;SDS011;5382;42.136;24.796;2023-06-05T03:32:44;9.30;;;2.13;;
10667;SDS011;5382;42.136;24.796;2023-06-05T03:35:10;5.72;;;2.92;;
10667;SDS011;5382;42.136;24.796;2023-06-05T03:37:37;11.57;;;3.55;;
10667;SDS011;5382;42.136;24.796;2023-06-05T03:40:06;10.80;;;2.15;;
10667;SDS011;5382;42.136;24.796;2023-06-05T03:42:34;6.35;;;2.33;;
10667;SDS011;5382;42.136;24.796;2023-06-05T03:45:01;7.47;;;2.58;;
10667;SDS011;5382;42.136;24.796;2023-06-05T03:47:29;8.23;;;2.95;;
10667;SDS011;5382;42.136;24.796;2023-06-05T03:49:55;4.90;;;2.70;;
10667;SDS011;5382;42.136;24.796;2023-06-05T03:52:25;6.55;;;2.63;;
10667;SDS011;5382;42.136;24.796;2023-06-05T03:54:52;12.73;;;3.22;;
10667;SDS011;5382;42.136;24.796;2023-06-05T03:57:22;10.75;;;2.42;;
10667;SDS011;5382;42.136;24.796;2023-06-05T03:59:49;8.13;;;3.17;;
10667;SDS011;5382;42.136;24.796;2023-06-05T04:02:16;9.10;;;2.88;;
10667;SDS011;5382;42.136;24.796;2023-06-05T04:04:43;11.02;;;3.08;;
10667;SDS011;5382;42.136;24.796;2023-06-05T04:07:09;11.32;;;2.83;;
10667;SDS011;5382;42.136;24.796;2023-06-05T04:09:36;12.13;;;2.80;;
10667;SDS011;5382;42.136;24.796;2023-06-05T04:12:03;12.35;;;3.40;;
10667;SDS011;5382;42.136;24.796;2023-06-05T04:14:32;6.47;;;2.70;;
10667;SDS011;5382;42.136;24.796;2023-06-05T04:16:59;7.60;;;3.10;;
10667;SDS011;5382;42.136;24.796;2023-06-05T04:19:26;6.72;;;2.90;;
10667;SDS011;5382;42.136;24.796;2023-06-05T04:21:53;8.63;;;3.17;;
10667;SDS011;5382;42.136;24.796;2023-06-05T04:24:20;24.52;;;3.08;;
10667;SDS011;5382;42.136;24.796;2023-06-05T04:26:47;6.80;;;2.65;;
10667;SDS011;5382;42.136;24.796;2023-06-05T04:29:13;5.30;;;2.10;;
10667;SDS011;5382;42.136;24.796;2023-06-05T04:31:43;8.68;;;3.33;;
10667;SDS011;5382;42.136;24.796;2023-06-05T04:34:12;7.35;;;2.72;;
10667;SDS011;5382;42.136;24.796;2023-06-05T04:36:39;7.68;;;2.47;;
10667;SDS011;5382;42.136;24.796;2023-06-05T04:39:06;10.45;;;3.50;;
10667;SDS011;5382;42.136;24.796;2023-06-05T04:41:39;10.95;;;3.40;;
10667;SDS011;5382;42.136;24.796;2023-06-05T04:44:10;9.30;;;4.47;;
10667;SDS011;5382;42.136;24.796;2023-06-05T04:46:38;9.68;;;4.68;;
10667;SDS011;5382;42.136;24.796;2023-06-05T04:49:07;18.45;;;6.63;;
10667;SDS011;5382;42.136;24.796;2023-06-05T04:51:33;16.17;;;8.80;;
10667;SDS011;5382;42.136;24.796;2023-06-05T04:54:01;14.95;;;8.20;;
10667;SDS011;5382;42.136;24.796;2023-06-05T04:56:28;11.63;;;6.30;;
10667;SDS011;5382;42.136;24.796;2023-06-05T04:58:57;8.23;;;4.70;;
10667;SDS011;5382;42.136;24.796;2023-06-05T05:01:26;11.73;;;4.38;;
10667;SDS011;5382;42.136;24.796;2023-06-05T05:03:53;9.20;;;4.25;;
10667;SDS011;5382;42.136;24.796;2023-06-05T05:06:21;7.65;;;2.97;;
10667;SDS011;5382;42.136;24.796;2023-06-05T05:08:48;6.35;;;2.65;;
10667;SDS011;5382;42.136;24.796;2023-06-05T05:11:16;12.52;;;3.63;;
10667;SDS011;5382;42.136;24.796;2023-06-05T05:13:43;7.35;;;2.88;;
10667;SDS011;5382;42.136;24.796;2023-06-05T05:16:10;5.47;;;3.35;;
10667;SDS011;5382;42.136;24.796;2023-06-05T05:18:39;8.50;;;3.30;;
10667;SDS011;5382;42.136;24.796;2023-06-05T05:21:07;6.63;;;3.53;;
10667;SDS011;5382;42.136;24.796;2023-06-05T05:23:35;9.25;;;3.20;;
10667;SDS011;5382;42.136;24.796;2023-06-05T05:26:02;10.77;;;4.40;;
10667;SDS011;5382;42.136;24.796;2023-06-05T05:28:30;20.35;;;4.53;;
10667;SDS011;5382;42.136;24.796;2023-06-05T05:30:56;9.27;;;3.45;;
10667;SDS011;5382;42.136;24.796;2023-06-05T05:33:23;8.55;;;3.63;;
10667;SDS011;5382;42.136;24.796;2023-06-05T05:35:50;8.27;;;3.70;;
10667;SDS011;5382;42.136;24.796;2023-06-05T05:38:17;9.00;;;4.22;;
10667;SDS011;5382;42.136;24.796;2023-06-05T05:40:45;11.55;;;4.13;;
10667;SDS011;5382;42.136;24.796;2023-06-05T05:43:12;11.95;;;4.32;;
10667;SDS011;5382;42.136;24.796;2023-06-05T05:45:39;9.38;;;3.95;;
10667;SDS011;5382;42.136;24.796;2023-06-05T05:48:07;12.90;;;4.28;;
10667;SDS011;5382;42.136;24.796;2023-06-05T05:50:34;9.70;;;3.83;;
10667;SDS011;5382;42.136;24.796;2023-06-05T05:53:02;8.20;;;3.67;;
10667;SDS011;5382;42.136;24.796;2023-06-05T05:55:28;12.00;;;4.50;;
10667;SDS011;5382;42.136;24.796;2023-06-05T05:57:57;7.55;;;4.10;;
10667;SDS011;5382;42.136;24.796;2023-06-05T06:00:23;6.68;;;3.80;;
10667;SDS011;5382;42.136;24.796;2023-06-05T06:02:51;11.55;;;4.28;;
10667;SDS011;5382;42.136;24.796;2023-06-05T06:05:18;14.77;;;4.15;;
10667;SDS011;5382;42.136;24.796;2023-06-05T06:07:45;10.30;;;4.53;;
10667;SDS011;5382;42.136;24.796;2023-06-05T06:10:12;15.07;;;4.53;;
10667;SDS011;5382;42.136;24.796;2023-06-05T06:12:39;12.20;;;3.65;;
10667;SDS011;5382;42.136;24.796;2023-06-05T06:15:08;11.13;;;4.32;;
10667;SDS011;5382;42.136;24.796;2023-06-05T06:17:36;12.38;;;4.22;;
10667;SDS011;5382;42.136;24.796;2023-06-05T06:20:03;11.18;;;3.95;;
10667;SDS011;5382;42.136;24.796;2023-06-05T06:22:32;8.55;;;4.03;;
10667;SDS011;5382;42.136;24.796;2023-06-05T06:24:58;12.85;;;4.60;;
10667;SDS011;5382;42.136;24.796;2023-06-05T06:27:25;12.52;;;4.88;;
10667;SDS011;5382;42.136;24.796;2023-06-05T06:29:52;15.48;;;4.15;;
10667;SDS011;5382;42.136;24.796;2023-06-05T06:32:20;10.70;;;4.18;;
10667;SDS011;5382;42.136;24.796;2023-06-05T06:34:48;9.93;;;4.38;;
10667;SDS011;5382;42.136;24.796;2023-06-05T06:37:15;10.75;;;4.47;;
10667;SDS011;5382;42.136;24.796;2023-06-05T06:39:42;9.88;;;4.35;;
10667;SDS011;5382;42.136;24.796;2023-06-05T06:42:09;9.77;;;3.92;;
10667;SDS011;5382;42.136;24.796;2023-06-05T06:44:37;8.73;;;4.05;;
10667;SDS011;5382;42.136;24.796;2023-06-05T06:47:04;13.45;;;4.85;;
10667;SDS011;5382;42.136;24.796;2023-06-05T06:49:34;12.18;;;3.67;;
10667;SDS011;5382;42.136;24.796;2023-06-05T06:52:01;7.20;;;4.13;;
10667;SDS011;5382;42.136;24.796;2023-06-05T06:54:28;17.05;;;5.28;;
10667;SDS011;5382;42.136;24.796;2023-06-05T06:56:54;13.68;;;5.05;;
10667;SDS011;5382;42.136;24.796;2023-06-05T06:59:22;13.60;;;5.50;;
10667;SDS011;5382;42.136;24.796;2023-06-05T07:04:36;12.93;;;5.35;;
10667;SDS011;5382;42.136;24.796;2023-06-05T07:07:03;8.93;;;5.45;;
10667;SDS011;5382;42.136;24.796;2023-06-05T07:09:31;12.02;;;6.30;;
10667;SDS011;5382;42.136;24.796;2023-06-05T07:11:58;12.60;;;6.13;;
10667;SDS011;5382;42.136;24.796;2023-06-05T07:14:29;13.35;;;6.30;;
10667;SDS011;5382;42.136;24.796;2023-06-05T07:16:57;16.10;;;6.70;;
10667;SDS011;5382;42.136;24.796;2023-06-05T07:19:25;18.90;;;7.82;;
10667;SDS011;5382;42.136;24.796;2023-06-05T07:21:54;10.15;;;6.57;;
10667;SDS011;5382;42.136;24.796;2023-06-05T07:24:21;12.07;;;6.78;;
10667;SDS011;5382;42.136;24.796;2023-06-05T07:26:50;20.52;;;6.97;;
10667;SDS011;5382;42.136;24.796;2023-06-05T07:29:17;15.20;;;7.38;;
10667;SDS011;5382;42.136;24.796;2023-06-05T07:31:45;14.93;;;7.82;;
10667;SDS011;5382;42.136;24.796;2023-06-05T07:34:12;13.10;;;8.65;;
10667;SDS011;5382;42.136;24.796;2023-06-05T07:36:40;14.38;;;9.13;;
10667;SDS011;5382;42.136;24.796;2023-06-05T07:39:08;13.90;;;9.35;;
10667;SDS011;5382;42.136;24.796;2023-06-05T07:41:36;14.30;;;10.35;;
10667;SDS011;5382;42.136;24.796;2023-06-05T07:44:03;12.05;;;10.15;;
10667;SDS011;5382;42.136;24.796;2023-06-05T07:46:30;12.52;;;9.55;;
10667;SDS011;5382;42.136;24.796;2023-06-05T07:48:57;15.07;;;9.85;;
10667;SDS011;5382;42.136;24.796;2023-06-05T07:51:24;18.35;;;10.25;;
10667;SDS011;5382;42.136;24.796;2023-06-05T07:53:51;12.80;;;9.73;;
10667;SDS011;5382;42.136;24.796;2023-06-05T07:56:19;16.60;;;10.30;;
10667;SDS011;5382;42.136;24.796;2023-06-05T07:58:49;16.67;;;10.45;;
10667;SDS011;5382;42.136;24.796;2023-06-05T08:01:16;17.10;;;11.38;;
10667;SDS011;5382;42.136;24.796;2023-06-05T08:03:45;24.70;;;10.38;;
10667;SDS011;5382;42.136;24.796;2023-06-05T08:06:12;13.73;;;8.73;;
10667;SDS011;5382;42.136;24.796;2023-06-05T08:08:40;14.77;;;9.90;;
10667;SDS011;5382;42.136;24.796;2023-06-05T08:11:08;14.75;;;9.68;;
10667;SDS011;5382;42.136;24.796;2023-06-05T08:13:37;19.75;;;9.93;;
10667;SDS011;5382;42.136;24.796;2023-06-05T08:16:04;17.25;;;10.35;;
10667;SDS011;5382;42.136;24.796;2023-06-05T08:18:31;15.82;;;10.75;;
10667;SDS011;5382;42.136;24.796;2023-06-05T08:20:58;16.17;;;11.18;;
10667;SDS011;5382;42.136;24.796;2023-06-05T08:23:25;17.15;;;11.48;;
10667;SDS011;5382;42.136;24.796;2023-06-05T08:25:53;15.35;;;10.40;;
10667;SDS011;5382;42.136;24.796;2023-06-05T08:28:20;21.50;;;10.73;;
10667;SDS011;5382;42.136;24.796;2023-06-05T08:30:48;16.45;;;10.45;;
10667;SDS011;5382;42.136;24.796;2023-06-05T08:33:18;24.05;;;11.65;;
10667;SDS011;5382;42.136;24.796;2023-06-05T08:35:45;29.23;;;12.18;;
10667;SDS011;5382;42.136;24.796;2023-06-05T08:38:11;16.85;;;11.30;;
10667;SDS011;5382;42.136;24.796;2023-06-05T08:40:38;15.13;;;10.32;;
10667;SDS011;5382;42.136;24.796;2023-06-05T08:43:07;15.65;;;9.88;;
10667;SDS011;5382;42.136;24.796;2023-06-05T08:45:34;14.52;;;10.02;;
10667;SDS011;5382;42.136;24.796;2023-06-05T08:48:02;19.17;;;9.38;;
10667;SDS011;5382;42.136;24.796;2023-06-05T08:50:32;17.60;;;9.75;;
10667;SDS011;5382;42.136;24.796;2023-06-05T08:53:00;13.18;;;8.82;;
10667;SDS011;5382;42.136;24.796;2023-06-05T08:55:28;12.13;;;9.23;;
10667;SDS011;5382;42.136;24.796;2023-06-05T08:57:56;12.80;;;9.07;;
10667;SDS011;5382;42.136;24.796;2023-06-05T09:00:24;16.60;;;8.95;;
10667;SDS011;5382;42.136;24.796;2023-06-05T09:02:52;11.65;;;8.93;;
10667;SDS011;5382;42.136;24.796;2023-06-05T09:05:20;15.95;;;8.38;;
10667;SDS011;5382;42.136;24.796;2023-06-05T09:07:47;31.83;;;8.98;;
10667;SDS011;5382;42.136;24.796;2023-06-05T09:10:24;11.38;;;7.97;;
10667;SDS011;5382;42.136;24.796;2023-06-05T09:12:53;10.68;;;6.35;;
10667;SDS011;5382;42.136;24.796;2023-06-05T09:15:21;10.07;;;6.28;;
10667;SDS011;5382;42.136;24.796;2023-06-05T09:17:55;8.07;;;5.95;;
10667;SDS011;5382;42.136;24.796;2023-06-05T09:20:30;10.88;;;6.15;;
10667;SDS011;5382;42.136;24.796;2023-06-05T09:23:00;9.13;;;5.70;;
10667;SDS011;5382;42.136;24.796;2023-06-05T09:25:30;8.32;;;5.93;;
10667;SDS011;5382;42.136;24.796;2023-06-05T09:28:13;7.78;;;5.45;;
10667;SDS011;5382;42.136;24.796;2023-06-05T09:33:27;8.65;;;5.53;;
10667;SDS011;5382;42.136;24.796;2023-06-05T09:36:07;6.70;;;5.15;;
10667;SDS011;5382;42.136;24.796;2023-06-05T09:38:36;8.20;;;4.97;;
10667;SDS011;5382;42.136;24.796;2023-06-05T09:41:04;7.30;;;5.00;;
10667;SDS011;5382;42.136;24.796;2023-06-05T09:43:32;8.02;;;4.65;;
10667;SDS011;5382;42.136;24.796;2023-06-05T09:46:05;11.98;;;5.45;;
10667;SDS011;5382;42.136;24.796;2023-06-05T09:48:33;7.55;;;5.05;;
10667;SDS011;5382;42.136;24.796;2023-06-05T09:51:11;9.55;;;4.95;;
10667;SDS011;5382;42.136;24.796;2023-06-05T09:53:41;6.18;;;4.82;;
10667;SDS011;5382;42.136;24.796;2023-06-05T09:56:10;7.50;;;4.82;;
10667;SDS011;5382;42.136;24.796;2023-06-05T09:58:39;6.65;;;4.82;;
10667;SDS011;5382;42.136;24.796;2023-06-05T10:01:09;7.40;;;4.97;;
10667;SDS011;5382;42.136;24.796;2023-06-05T10:03:39;5.45;;;4.45;;
10667;SDS011;5382;42.136;24.796;2023-06-05T10:06:08;7.75;;;4.80;;
10667;SDS011;5382;42.136;24.796;2023-06-05T10:08:37;10.15;;;4.00;;
10667;SDS011;5382;42.136;24.796;2023-06-05T10:11:04;10.20;;;4.65;;
10667;SDS011;5382;42.136;24.796;2023-06-05T10:13:32;7.22;;;3.72;;
10667;SDS011;5382;42.136;24.796;2023-06-05T10:16:00;6.65;;;3.53;;
10667;SDS011;5382;42.136;24.796;2023-06-05T10:18:29;4.03;;;3.38;;
10667;SDS011;5382;42.136;24.796;2023-06-05T10:20:57;4.45;;;3.45;;
10667;SDS011;5382;42.136;24.796;2023-06-05T10:23:26;7.72;;;4.05;;
10667;SDS011;5382;42.136;24.796;2023-06-05T10:25:54;4.50;;;3.50;;
10667;SDS011;5382;42.136;24.796;2023-06-05T10:28:29;5.65;;;4.30;;
10667;SDS011;5382;42.136;24.796;2023-06-05T10:31:18;4.88;;;3.22;;
10667;SDS011;5382;42.136;24.796;2023-06-05T10:34:13;7.15;;;3.28;;
10667;SDS011;5382;42.136;24.796;2023-06-05T10:39:48;10.82;;;4.55;;
10667;SDS011;5382;42.136;24.796;2023-06-05T10:42:22;5.57;;;2.92;;
10667;SDS011;5382;42.136;24.796;2023-06-05T10:44:49;8.60;;;2.50;;
10667;SDS011;5382;42.136;24.796;2023-06-05T10:50:27;6.75;;;2.90;;
10667;SDS011;5382;42.136;24.796;2023-06-05T10:56:02;4.95;;;2.88;;
10667;SDS011;5382;42.136;24.796;2023-06-05T10:58:29;3.50;;;2.88;;
10667;SDS011;5382;42.136;24.796;2023-06-05T11:03:57;10.35;;;4.05;;
10667;SDS011;5382;42.136;24.796;2023-06-05T11:06:25;4.15;;;2.75;;
10667;SDS011;5382;42.136;24.796;2023-06-05T11:09:11;4.78;;;2.70;;
10667;SDS011;5382;42.136;24.796;2023-06-05T11:11:56;3.60;;;2.45;;
10667;SDS011;5382;42.136;24.796;2023-06-05T11:14:24;4.53;;;2.58;;
10667;SDS011;5382;42.136;24.796;2023-06-05T11:16:50;7.43;;;2.63;;
10667;SDS011;5382;42.136;24.796;2023-06-05T11:19:36;4.38;;;2.42;;
10667;SDS011;5382;42.136;24.796;2023-06-05T11:22:04;8.38;;;3.03;;
10667;SDS011;5382;42.136;24.796;2023-06-05T11:24:32;3.75;;;2.80;;
10667;SDS011;5382;42.136;24.796;2023-06-05T11:27:02;8.60;;;2.35;;
10667;SDS011;5382;42.136;24.796;2023-06-05T11:29:30;7.53;;;3.08;;
10667;SDS011;5382;42.136;24.796;2023-06-05T11:31:58;6.10;;;3.38;;
10667;SDS011;5382;42.136;24.796;2023-06-05T11:34:25;9.23;;;4.53;;
10667;SDS011;5382;42.136;24.796;2023-06-05T11:36:53;6.72;;;4.13;;
10667;SDS011;5382;42.136;24.796;2023-06-05T11:39:20;11.90;;;3.45;;
10667;SDS011;5382;42.136;24.796;2023-06-05T11:41:48;7.15;;;3.42;;
10667;SDS011;5382;42.136;24.796;2023-06-05T11:44:30;3.08;;;2.60;;
10667;SDS011;5382;42.136;24.796;2023-06-05T11:46:58;4.93;;;2.60;;
10667;SDS011;5382;42.136;24.796;2023-06-05T11:49:26;6.93;;;2.53;;
10667;SDS011;5382;42.136;24.796;2023-06-05T11:51:54;9.43;;;4.82;;
10667;SDS011;5382;42.136;24.796;2023-06-05T11:54:25;8.57;;;4.43;;
10667;SDS011;5382;42.136;24.796;2023-06-05T11:57:00;5.90;;;3.08;;
10667;SDS011;5382;42.136;24.796;2023-06-05T11:59:35;5.05;;;2.78;;
10667;SDS011;5382;42.136;24.796;2023-06-05T12:02:02;2.88;;;2.30;;
10667;SDS011;5382;42.136;24.796;2023-06-05T12:04:30;3.80;;;2.15;;
10667;SDS011;5382;42.136;24.796;2023-06-05T12:06:58;5.18;;;2.30;;
10667;SDS011;5382;42.136;24.796;2023-06-05T12:09:27;4.53;;;2.45;;
10667;SDS011;5382;42.136;24.796;2023-06-05T12:12:04;14.35;;;3.28;;
10667;SDS011;5382;42.136;24.796;2023-06-05T12:14:32;5.93;;;2.67;;
10667;SDS011;5382;42.136;24.796;2023-06-05T12:17:10;3.38;;;2.03;;
10667;SDS011;5382;42.136;24.796;2023-06-05T12:19:37;4.13;;;2.67;;
10667;SDS011;5382;42.136;24.796;2023-06-05T12:22:05;4.47;;;2.30;;
10667;SDS011;5382;42.136;24.796;2023-06-05T12:24:34;10.10;;;2.67;;
10667;SDS011;5382;42.136;24.796;2023-06-05T12:27:03;9.50;;;2.55;;
10667;SDS011;5382;42.136;24.796;2023-06-05T12:29:31;5.38;;;2.45;;
10667;SDS011;5382;42.136;24.796;2023-06-05T12:32:01;4.90;;;2.38;;
10667;SDS011;5382;42.136;24.796;2023-06-05T12:34:39;3.55;;;2.10;;
10667;SDS011;5382;42.136;24.796;2023-06-05T12:37:10;16.88;;;3.22;;
10667;SDS011;5382;42.136;24.796;2023-06-05T12:39:37;6.18;;;2.08;;
10667;SDS011;5382;42.136;24.796;2023-06-05T12:42:05;4.10;;;2.30;;
10667;SDS011;5382;42.136;24.796;2023-06-05T12:44:32;3.72;;;2.05;;
10667;SDS011;5382;42.136;24.796;2023-06-05T12:46:59;5.43;;;2.75;;
10667;SDS011;5382;42.136;24.796;2023-06-05T12:49:27;2.97;;;2.28;;
10667;SDS011;5382;42.136;24.796;2023-06-05T12:51:54;5.28;;;2.35;;
10667;SDS011;5382;42.136;24.796;2023-06-05T12:54:22;3.45;;;2.47;;
10667;SDS011;5382;42.136;24.796;2023-06-05T12:56:48;10.30;;;2.83;;
10667;SDS011;5382;42.136;24.796;2023-06-05T12:59:16;4.80;;;2.47;;
10667;SDS011;5382;42.136;24.796;2023-06-05T13:01:43;3.35;;;2.28;;
10667;SDS011;5382;42.136;24.796;2023-06-05T13:04:10;6.22;;;2.50;;
10667;SDS011;5382;42.136;24.796;2023-06-05T13:06:38;4.13;;;1.95;;
10667;SDS011;5382;42.136;24.796;2023-06-05T13:09:07;2.58;;;2.10;;
10667;SDS011;5382;42.136;24.796;2023-06-05T13:11:34;6.50;;;2.35;;
10667;SDS011;5382;42.136;24.796;2023-06-05T13:14:01;3.55;;;2.45;;
10667;SDS011;5382;42.136;24.796;2023-06-05T13:16:28;8.55;;;2.97;;
10667;SDS011;5382;42.136;24.796;2023-06-05T13:18:55;4.80;;;2.63;;
10667;SDS011;5382;42.136;24.796;2023-06-05T13:21:22;4.13;;;2.60;;
10667;SDS011;5382;42.136;24.796;2023-06-05T13:23:51;3.30;;;2.08;;
10667;SDS011;5382;42.136;24.796;2023-06-05T13:26:18;8.10;;;3.08;;
10667;SDS011;5382;42.136;24.796;2023-06-05T13:28:45;4.03;;;2.28;;
10667;SDS011;5382;42.136;24.796;2023-06-05T13:31:11;3.88;;;2.25;;
10667;SDS011;5382;42.136;24.796;2023-06-05T13:33:39;4.10;;;2.30;;
10667;SDS011;5382;42.136;24.796;2023-06-05T13:36:06;11.38;;;2.63;;
10667;SDS011;5382;42.136;24.796;2023-06-05T13:38:33;9.75;;;2.67;;
10667;SDS011;5382;42.136;24.796;2023-06-05T13:41:04;6.55;;;2.53;;
10667;SDS011;5382;42.136;24.796;2023-06-05T13:43:31;3.17;;;2.55;;
10667;SDS011;5382;42.136;24.796;2023-06-05T13:45:59;2.75;;;2.15;;
10667;SDS011;5382;42.136;24.796;2023-06-05T13:48:26;4.45;;;2.75;;
10667;SDS011;5382;42.136;24.796;2023-06-05T13:50:53;8.02;;;2.55;;
10667;SDS011;5382;42.136;24.796;2023-06-05T13:53:21;2.78;;;2.50;;
10667;SDS011;5382;42.136;24.796;2023-06-05T13:55:48;13.45;;;3.00;;
10667;SDS011;5382;42.136;24.796;2023-06-05T13:58:16;4.78;;;2.45;;
10667;SDS011;5382;42.136;24.796;2023-06-05T14:00:43;4.18;;;2.58;;
10667;SDS011;5382;42.136;24.796;2023-06-05T14:03:10;5.40;;;2.30;;
10667;SDS011;5382;42.136;24.796;2023-06-05T14:05:37;3.53;;;2.30;;
10667;SDS011;5382;42.136;24.796;2023-06-05T14:08:04;7.18;;;2.47;;
10667;SDS011;5382;42.136;24.796;2023-06-05T14:10:32;7.20;;;2.50;;
10667;SDS011;5382;42.136;24.796;2023-06-05T14:13:01;24.45;;;4.45;;
10667;SDS011;5382;42.136;24.796;2023-06-05T14:15:31;9.35;;;2.90;;
10667;SDS011;5382;42.136;24.796;2023-06-05T14:18:00;4.30;;;2.50;;
10667;SDS011;5382;42.136;24.796;2023-06-05T14:20:28;15.38;;;3.28;;
10667;SDS011;5382;42.136;24.796;2023-06-05T14:22:55;6.22;;;2.60;;
10667;SDS011;5382;42.136;24.796;2023-06-05T14:25:22;7.15;;;2.30;;
10667;SDS011;5382;42.136;24.796;2023-06-05T14:27:53;9.27;;;2.17;;
10667;SDS011;5382;42.136;24.796;2023-06-05T14:30:20;5.25;;;2.70;;
10667;SDS011;5382;42.136;24.796;2023-06-05T14:32:48;5.57;;;2.38;;
10667;SDS011;5382;42.136;24.796;2023-06-05T14:35:15;6.75;;;2.53;;
10667;SDS011;5382;42.136;24.796;2023-06-05T14:37:42;8.57;;;2.65;;
10667;SDS011;5382;42.136;24.796;2023-06-05T14:40:09;2.50;;;2.17;;
10667;SDS011;5382;42.136;24.796;2023-06-05T14:42:36;20.75;;;3.97;;
10667;SDS011;5382;42.136;24.796;2023-06-05T14:45:05;8.05;;;2.47;;
10667;SDS011;5382;42.136;24.796;2023-06-05T14:47:32;5.03;;;2.22;;
10667;SDS011;5382;42.136;24.796;2023-06-05T14:50:01;4.88;;;3.15;;
10667;SDS011;5382;42.136;24.796;2023-06-05T14:52:27;5.70;;;2.10;;
10667;SDS011;5382;42.136;24.796;2023-06-05T14:54:54;11.35;;;2.78;;
10667;SDS011;5382;42.136;24.796;2023-06-05T14:57:21;20.33;;;3.17;;
10667;SDS011;5382;42.136;24.796;2023-06-05T14:59:48;5.57;;;2.05;;
10667;SDS011;5382;42.136;24.796;2023-06-05T15:02:15;5.40;;;2.30;;
10667;SDS011;5382;42.136;24.796;2023-06-05T15:04:42;3.55;;;2.20;;
10667;SDS011;5382;42.136;24.796;2023-06-05T15:07:10;5.65;;;2.05;;